Kayseri, Turkey

6:47 PM EEST on August 03, 2015 (GMT +0300)
Erkilet Air Base | | Change Station
CLOSE
Current Station
Airport
Location: Kayseri,
Elevation: 3455 ft
Nearby Weather Stations

Elev 3455 ft 38.77 °N, 35.50 °E | Updated 27 minutes ago

Partly Cloudy
Partly Cloudy
88 °F
Feels Like 88 °F
N
5
Wind Variable Wind from NNW

Today
High -- | Low -- °F
--% Chance of Precip.
Yesterday
High -- | Low -- °F
Precip. -- in
5:40 AM 7:47 PM
Waning Gibbous, 86% visible
Pressure 30.01 in
Visibility 6.2 miles
Clouds Few 4000 ft
Dew Point 48 °F
Humidity 25%
Rainfall 0.00 in
Snow Depth Not available.
UV 1 out of 12
Pollen Not available.
Air Quality Not available.
Flu Activity Not available.
METAR LTAU 031520Z 34004KT 9999 FEW040 31/09 Q1016 NOSIG

More Conditions Fewer Conditions

Pressure 30.01 in
Visibility 6.2 miles
Clouds Few 4000 ft
Dew Point 48 °F
Humidity 25%
Rainfall 0.00 in
Snow Depth Not available.
UV 1 out of 12
Pollen Not available.
Air Quality Not available.
Flu Activity Not available.
METAR LTAU 031520Z 34004KT 9999 FEW040 31/09 Q1016 NOSIG

More Conditions Fewer Conditions

10-Day Weather Forecast

×

Almanac

Astronomy

Aug. 03, 2015 Rise Set
Actual Time
Civil Twilight
Nautical Twilight
Astronomical Twilight
Moon
Length of Visible Light
Length of Day
Tomorrow will be .
, % of the Moon is Illuminated

Today's Extremes

Country Highs Country Lows

Community

WunderPhotos

Upload Photos

1,843,645 photos uploaded!

WunderBlogs® & News

Nearby

Air Quality

  Air Quality AQ Index Pollutant
Not available.

Snow Depth

Station Depth Elevation

Earthquake Activity

City Distance Mag. Time & Date
Minimum magnitude displayed is 2.5.

Coastal Water Temperatures

Place Temperature

Stations

Nearby Weather Stations

Station Location Temp. Windchill Dew Point Humidity Wind Precip. Elev Updated Type